Time;durP1;ratioP1;P1;durP2;ratioP2;P2;SDS_P1;SDS_P2;PMS_P1;PMS_P2;Temp;Humidity;BMP_temperature;BMP_pressure;BME280_temperature;BME280_humidity;BME280_pressure;Samples;Min_cycle;Max_cycle;Signal;HPM_P1;HPM_P2
2022/07/17 00:00:49;;;;;;;;;;;;;;;16.50;47.89;97287.28;4959072;29;19963;-73
2022/07/17 00:03:16;;;;;;;;;;;;;;;16.49;49.06;97290.19;4959182;29;19960;-73
2022/07/17 00:05:43;;;;;;;;;;;;;;;16.47;48.73;97281.69;4959034;29;20413;-72
2022/07/17 00:08:09;;;;;;;;;;;;;;;16.44;48.83;97286.41;4959192;29;19965;-73
2022/07/17 00:10:36;;;;;;;;;;;;;;;16.42;50.55;97288.47;4959101;29;19963;-73
2022/07/17 00:13:02;;;;;;;;;;;;;;;16.42;48.51;97283.19;4958823;29;19961;-74
2022/07/17 00:15:29;;;;;;;;;;;;;;;16.41;49.92;97284.22;4957167;29;19953;-73
2022/07/17 00:17:55;;;;;;;;;;;;;;;16.41;50.56;97286.06;4958769;29;19954;-73
2022/07/17 00:20:21;;;;;;;;;;;;;;;16.42;50.45;97285.00;4958242;29;20362;-74
2022/07/17 00:22:47;;;;;;;;;;;;;;;16.41;49.15;97272.81;4958553;29;19967;-74
2022/07/17 00:25:13;;;;;;;;;;;;;;;16.41;49.70;97270.97;4958764;29;19970;-73
2022/07/17 00:27:39;;;;;;;;;;;;;;;16.41;49.03;97268.31;4958436;29;19974;-74
2022/07/17 00:30:05;;;;;;;;;;;;;;;16.39;49.42;97264.31;4946941;29;19960;-73
2022/07/17 00:32:32;;;;;;;;;;;;;;;16.39;49.75;97274.91;4958617;29;19972;-74
2022/07/17 00:34:58;;;;;;;;;;;;;;;16.39;48.88;97265.09;4958689;29;20417;-73
2022/07/17 00:37:24;;;;;;;;;;;;;;;16.39;50.59;97267.75;4958979;29;20010;-73
2022/07/17 00:39:50;;;;;;;;;;;;;;;16.38;49.65;97273.31;4958236;29;20477;-73
2022/07/17 00:42:16;;;;;;;;;;;;;;;16.36;49.47;97270.88;4958377;29;19987;-73
2022/07/17 00:44:42;;;;;;;;;;;;;;;16.35;49.72;97263.97;4958625;29;19955;-75
2022/07/17 00:47:15;;;;;;;;;;;;;;;16.33;50.37;97275.84;4958286;29;19986;-75
2022/07/17 00:49:42;;;;;;;;;;;;;;;16.33;50.59;97266.03;4948651;29;19962;-74
2022/07/17 00:52:08;;;;;;;;;;;;;;;16.32;49.95;97258.38;4958144;28;19971;-75
2022/07/17 00:54:36;;;;;;;;;;;;;;;16.32;50.64;97274.25;4958170;29;20056;-73
2022/07/17 00:57:04;;;;;;;;;;;;;;;16.33;50.58;97273.19;4958175;29;19965;-75
2022/07/17 00:59:31;;;;;;;;;;;;;;;16.34;50.51;97277.47;4945182;29;19955;-75
2022/07/17 01:01:56;;;;;;;;;;;;;;;16.37;51.02;97279.63;4957883;29;20437;-74
2022/07/17 01:04:23;;;;;;;;;;;;;;;16.35;51.06;97271.91;4957468;28;19963;-74
2022/07/17 01:06:48;;;;;;;;;;;;;;;16.36;50.44;97264.78;4957928;29;19976;-74
2022/07/17 01:09:14;;;;;;;;;;;;;;;16.33;50.70;97274.00;4957892;29;19959;-75
2022/07/17 01:11:40;;;;;;;;;;;;;;;16.32;50.12;97268.94;4957706;29;20014;-74
2022/07/17 01:14:06;;;;;;;;;;;;;;;16.31;50.72;97270.75;4957829;29;20044;-74
2022/07/17 01:16:32;;;;;;;;;;;;;;;16.29;50.99;97269.41;4957702;29;19978;-75
2022/07/17 01:18:58;;;;;;;;;;;;;;;16.27;50.67;97268.81;4957986;29;20009;-74
2022/07/17 01:21:24;;;;;;;;;;;;;;;16.26;50.69;97270.69;4957177;28;19992;-74
2022/07/17 01:23:50;;;;;;;;;;;;;;;16.23;50.95;97269.31;4957123;29;19975;-75
2022/07/17 01:26:16;;;;;;;;;;;;;;;16.23;50.75;97274.59;4957323;29;20024;-74
2022/07/17 01:28:42;;;;;;;;;;;;;;;16.22;51.13;97275.63;4957910;29;19961;-74
2022/07/17 01:31:08;;;;;;;;;;;;;;;16.21;51.33;97274.03;4957635;29;20005;-75
2022/07/17 01:33:34;;;;;;;;;;;;;;;16.20;51.15;97276.91;4957410;29;20363;-74
2022/07/17 01:36:00;;;;;;;;;;;;;;;16.19;51.25;97277.91;4957302;29;20419;-74
2022/07/17 01:38:26;;;;;;;;;;;;;;;16.18;51.27;97273.69;4957266;29;19956;-75
2022/07/17 01:40:51;;;;;;;;;;;;;;;16.18;51.36;97274.47;4956163;29;19958;-74
2022/07/17 01:43:17;;;;;;;;;;;;;;;16.17;51.09;97272.09;4957832;29;19988;-74
2022/07/17 01:45:43;;;;;;;;;;;;;;;16.15;51.45;97274.16;4956895;28;20412;-75
2022/07/17 01:48:09;;;;;;;;;;;;;;;16.12;51.45;97275.41;4957353;29;20082;-74
2022/07/17 01:50:35;;;;;;;;;;;;;;;16.09;51.44;97278.53;4957398;29;19966;-73
2022/07/17 01:53:01;;;;;;;;;;;;;;;16.07;51.61;97285.09;4957080;29;19973;-74
2022/07/17 01:55:27;;;;;;;;;;;;;;;16.06;51.88;97280.84;4957201;29;20380;-73
2022/07/17 01:57:53;;;;;;;;;;;;;;;16.05;51.85;97284.53;4957173;29;19951;-73
2022/07/17 02:00:21;;;;;;;;;;;;;;;16.01;51.84;97279.69;4956788;29;19999;-73
2022/07/17 02:02:47;;;;;;;;;;;;;;;15.98;51.92;97280.16;4956983;29;20436;-73
2022/07/17 02:05:13;;;;;;;;;;;;;;;15.95;51.97;97285.09;4956975;29;19954;-73
2022/07/17 02:07:39;;;;;;;;;;;;;;;15.90;52.05;97279.72;4956758;29;19971;-73
2022/07/17 02:10:06;;;;;;;;;;;;;;;15.87;52.13;97280.94;4956647;29;19969;-73
2022/07/17 02:12:32;;;;;;;;;;;;;;;15.84;52.41;97284.06;4956811;29;20032;-74
2022/07/17 02:14:58;;;;;;;;;;;;;;;15.80;52.56;97277.63;4956328;28;19962;-74
2022/07/17 02:17:24;;;;;;;;;;;;;;;15.73;52.85;97280.41;4956325;29;20318;-74
2022/07/17 02:19:50;;;;;;;;;;;;;;;15.70;53.26;97274.72;4956442;29;19955;-73
2022/07/17 02:22:16;;;;;;;;;;;;;;;15.63;53.08;97275.66;4956334;28;19967;-73
2022/07/17 02:24:42;;;;;;;;;;;;;;;15.57;53.00;97276.56;4956453;29;20408;-74
2022/07/17 02:27:07;;;;;;;;;;;;;;;15.51;53.79;97274.84;4956758;29;20040;-73
2022/07/17 02:29:33;;;;;;;;;;;;;;;15.48;53.82;97279.78;4956282;29;20143;-73
2022/07/17 02:31:59;;;;;;;;;;;;;;;15.41;53.59;97270.13;4955678;29;20326;-73
2022/07/17 02:34:25;;;;;;;;;;;;;;;15.36;53.71;97285.06;4956318;29;19967;-73
2022/07/17 02:36:51;;;;;;;;;;;;;;;15.29;54.27;97277.22;4956125;29;19956;-74
2022/07/17 02:39:17;;;;;;;;;;;;;;;15.26;54.08;97274.22;4956253;29;20407;-73
2022/07/17 02:41:43;;;;;;;;;;;;;;;15.21;54.24;97266.97;4955785;29;20006;-73
2022/07/17 02:44:09;;;;;;;;;;;;;;;15.16;54.55;97272.97;4955135;29;19957;-73
2022/07/17 02:46:35;;;;;;;;;;;;;;;15.10;54.46;97263.28;4956161;29;19998;-73
2022/07/17 02:49:00;;;;;;;;;;;;;;;15.07;55.21;97266.38;4956129;28;19956;-74
2022/07/17 02:51:26;;;;;;;;;;;;;;;15.02;55.43;97272.34;4956024;29;20315;-73
2022/07/17 02:53:52;;;;;;;;;;;;;;;14.98;54.99;97262.44;4955844;29;20057;-73
2022/07/17 02:56:18;;;;;;;;;;;;;;;14.94;55.31;97266.56;4956616;29;19980;-73
2022/07/17 02:58:44;;;;;;;;;;;;;;;14.90;55.54;97273.34;4955824;29;20499;-73
2022/07/17 03:01:10;;;;;;;;;;;;;;;14.86;55.51;97274.81;4955807;29;19965;-73
2022/07/17 03:03:36;;;;;;;;;;;;;;;14.81;55.91;97267.56;4955834;29;20010;-73
2022/07/17 03:06:01;;;;;;;;;;;;;;;14.78;55.97;97265.34;4955780;29;19968;-73
2022/07/17 03:08:27;;;;;;;;;;;;;;;14.74;55.96;97266.84;4955760;28;19990;-74
2022/07/17 03:10:53;;;;;;;;;;;;;;;14.69;55.39;97269.34;4954979;29;19961;-73
2022/07/17 03:13:19;;;;;;;;;;;;;;;14.65;56.01;97260.28;4954614;29;19954;-73
2022/07/17 03:15:45;;;;;;;;;;;;;;;14.62;56.29;97261.53;4956001;29;20384;-73
2022/07/17 03:18:11;;;;;;;;;;;;;;;14.61;56.16;97263.38;4955632;29;20034;-73
2022/07/17 03:20:37;;;;;;;;;;;;;;;14.60;56.13;97260.94;4955858;29;19987;-74
2022/07/17 03:23:03;;;;;;;;;;;;;;;14.55;56.32;97258.13;4955677;29;20052;-73
2022/07/17 03:25:29;;;;;;;;;;;;;;;14.50;55.56;97258.78;4955720;29;20053;-73
2022/07/17 03:27:54;;;;;;;;;;;;;;;14.46;56.36;97262.09;4955145;29;20018;-73
2022/07/17 03:30:20;;;;;;;;;;;;;;;14.44;56.42;97264.97;4955673;29;19964;-74
2022/07/17 03:32:46;;;;;;;;;;;;;;;14.46;56.41;97262.09;4955730;29;19961;-73
2022/07/17 03:35:12;;;;;;;;;;;;;;;14.49;56.23;97262.47;4955400;29;19963;-73
2022/07/17 03:37:38;;;;;;;;;;;;;;;14.54;55.44;97256.53;4955436;29;20406;-75
2022/07/17 03:40:05;;;;;;;;;;;;;;;14.57;56.32;97261.38;4955474;29;19963;-73
2022/07/17 03:42:31;;;;;;;;;;;;;;;14.60;56.54;97263.59;4955363;29;19958;-73
2022/07/17 03:44:57;;;;;;;;;;;;;;;14.55;56.40;97263.41;4955546;29;19972;-73
2022/07/17 03:47:23;;;;;;;;;;;;;;;14.50;56.39;97253.50;4955353;29;19965;-73
2022/07/17 03:49:49;;;;;;;;;;;;;;;14.48;56.72;97254.78;4955098;28;19964;-73
2022/07/17 03:52:15;;;;;;;;;;;;;;;14.44;56.94;97249.13;4955218;28;19995;-73
2022/07/17 03:54:41;;;;;;;;;;;;;;;14.42;57.02;97256.47;4938156;29;20308;-72
2022/07/17 03:57:06;;;;;;;;;;;;;;;14.40;57.12;97258.50;4955430;29;19963;-73
2022/07/17 03:59:32;;;;;;;;;;;;;;;14.39;57.05;97259.56;4955220;29;19958;-73
2022/07/17 04:01:58;;;;;;;;;;;;;;;14.37;57.36;97267.69;4955343;29;20404;-73
2022/07/17 04:04:24;;;;;;;;;;;;;;;14.34;57.32;97272.59;4955143;29;19975;-73
2022/07/17 04:06:50;;;;;;;;;;;;;;;14.31;57.10;97265.94;4955216;29;19981;-73
2022/07/17 04:09:16;;;;;;;;;;;;;;;14.27;57.53;97266.59;4955101;29;20377;-74
2022/07/17 04:11:42;;;;;;;;;;;;;;;14.25;57.54;97266.81;4955587;29;20021;-73
2022/07/17 04:14:08;;;;;;;;;;;;;;;14.23;57.51;97273.34;4955148;29;19955;-73
2022/07/17 04:16:33;;;;;;;;;;;;;;;14.23;57.45;97282.06;4955246;29;19956;-73
2022/07/17 04:18:59;;;;;;;;;;;;;;;14.21;58.03;97273.56;4954840;28;19961;-73
2022/07/17 04:21:25;;;;;;;;;;;;;;;14.19;58.46;97275.59;4954951;29;20943;-73
2022/07/17 04:23:53;;;;;;;;;;;;;;;14.17;58.04;97270.56;4954745;28;20222;-73
2022/07/17 04:26:19;;;;;;;;;;;;;;;14.20;58.13;97271.97;4955183;29;20479;-72
2022/07/17 04:28:46;;;;;;;;;;;;;;;14.25;58.43;97276.56;4954894;28;19981;-72
2022/07/17 04:31:12;;;;;;;;;;;;;;;14.28;58.26;97270.84;4955073;29;20329;-72
2022/07/17 04:33:38;;;;;;;;;;;;;;;14.31;58.46;97276.47;4954905;29;20357;-73
2022/07/17 04:36:04;;;;;;;;;;;;;;;14.37;58.26;97278.25;4954945;29;20057;-73
2022/07/17 04:38:30;;;;;;;;;;;;;;;14.42;58.07;97282.84;4955687;28;19954;-73
2022/07/17 04:40:57;;;;;;;;;;;;;;;14.48;58.50;97284.59;4958255;29;19971;-75
2022/07/17 04:43:22;;;;;;;;;;;;;;;14.56;58.00;97278.25;4958217;29;19956;-74
2022/07/17 04:45:49;;;;;;;;;;;;;;;14.64;58.19;97279.78;4957248;29;20056;-73
2022/07/17 04:48:14;;;;;;;;;;;;;;;14.72;57.92;97277.66;4958043;29;19969;-73
2022/07/17 04:50:40;;;;;;;;;;;;;;;14.81;58.21;97273.66;4959072;29;19958;-73
2022/07/17 04:53:07;;;;;;;;;;;;;;;14.92;57.57;97263.34;4957049;29;19969;-73
2022/07/17 04:55:33;;;;;;;;;;;;;;;15.03;56.95;97262.56;4958499;29;19955;-73
2022/07/17 04:57:58;;;;;;;;;;;;;;;15.14;56.78;97263.63;4958034;29;20378;-73
2022/07/17 05:00:24;;;;;;;;;;;;;;;15.28;56.38;97264.22;4958054;29;19959;-73
2022/07/17 05:02:50;;;;;;;;;;;;;;;15.42;56.73;97270.94;4957806;29;20342;-74
2022/07/17 05:05:16;;;;;;;;;;;;;;;15.60;57.33;97270.84;4957676;29;19961;-74
2022/07/17 05:07:42;;;;;;;;;;;;;;;15.80;57.02;97273.16;4958179;29;20082;-73
2022/07/17 05:10:08;;;;;;;;;;;;;;;16.03;56.63;97272.31;4957823;29;19953;-74
2022/07/17 05:12:34;;;;;;;;;;;;;;;16.28;56.00;97273.91;4958407;29;19965;-73
2022/07/17 05:15:00;;;;;;;;;;;;;;;16.53;55.53;97270.94;4957762;29;19958;-73
2022/07/17 05:17:26;;;;;;;;;;;;;;;16.82;55.68;97271.78;4957813;29;20053;-73
2022/07/17 05:19:52;;;;;;;;;;;;;;;17.13;54.88;97269.66;4957303;29;19966;-73
2022/07/17 05:22:18;;;;;;;;;;;;;;;17.43;53.81;97263.28;4958403;29;20047;-73
2022/07/17 05:24:44;;;;;;;;;;;;;;;17.72;52.83;97256.00;4957734;29;19971;-74
2022/07/17 05:27:10;;;;;;;;;;;;;;;18.03;52.79;97259.09;4957726;29;19977;-73
2022/07/17 05:29:36;;;;;;;;;;;;;;;18.32;51.45;97254.41;4957417;29;19962;-73
2022/07/17 05:32:02;;;;;;;;;;;;;;;18.60;50.94;97244.63;4957416;29;20015;-73
2022/07/17 05:34:28;;;;;;;;;;;;;;;18.85;50.34;97252.88;4957501;29;20319;-74
2022/07/17 05:36:54;;;;;;;;;;;;;;;19.05;49.41;97239.00;4957166;28;19970;-74
2022/07/17 05:39:20;;;;;;;;;;;;;;;19.25;49.03;97243.69;4957375;29;19964;-74
2022/07/17 05:41:46;;;;;;;;;;;;;;;19.53;49.51;97239.13;4942668;29;19962;-73
2022/07/17 05:44:11;;;;;;;;;;;;;;;19.79;48.05;97241.97;4957382;29;19964;-73
2022/07/17 05:46:37;;;;;;;;;;;;;;;19.94;47.42;97230.59;4957112;29;19968;-73
2022/07/17 05:49:03;;;;;;;;;;;;;;;20.14;47.80;97240.53;4957097;29;19983;-74
2022/07/17 05:51:29;;;;;;;;;;;;;;;20.34;47.65;97237.94;4957142;28;19958;-73
2022/07/17 05:53:55;;;;;;;;;;;;;;;20.54;46.80;97233.78;4956871;29;19967;-73
2022/07/17 05:56:21;;;;;;;;;;;;;;;20.65;46.63;97238.09;4957100;29;19962;-73
2022/07/17 05:58:47;;;;;;;;;;;;;;;20.68;46.31;97241.03;4957060;29;19963;-76
2022/07/17 06:01:13;;;;;;;;;;;;;;;20.79;46.42;97236.53;4956987;29;20396;-73
2022/07/17 06:03:39;;;;;;;;;;;;;;;20.90;45.81;97242.66;4955835;29;19999;-73
2022/07/17 06:06:04;;;;;;;;;;;;;;;21.00;45.36;97234.69;4957335;29;20057;-74
2022/07/17 06:08:30;;;;;;;;;;;;;;;21.21;45.71;97243.50;4956619;29;20507;-73
2022/07/17 06:10:56;;;;;;;;;;;;;;;21.36;44.44;97240.03;4956914;29;20318;-73
2022/07/17 06:13:23;;;;;;;;;;;;;;;21.41;43.36;97225.88;4956640;29;19964;-74
2022/07/17 06:15:48;;;;;;;;;;;;;;;21.47;44.58;97244.31;4956651;29;20423;-74
2022/07/17 06:18:14;;;;;;;;;;;;;;;21.65;44.24;97236.81;4956622;29;20041;-73
2022/07/17 06:20:40;;;;;;;;;;;;;;;21.82;44.35;97241.84;4956246;29;20007;-74
2022/07/17 06:23:06;;;;;;;;;;;;;;;21.99;43.76;97233.53;4956424;29;20063;-74
2022/07/17 06:25:32;;;;;;;;;;;;;;;22.01;42.44;97228.72;4956530;29;20342;-73
2022/07/17 06:27:58;;;;;;;;;;;;;;;22.03;43.13;97235.38;4956370;29;19975;-74
2022/07/17 06:30:24;;;;;;;;;;;;;;;22.22;43.35;97240.94;4956459;29;19961;-74
2022/07/17 06:32:50;;;;;;;;;;;;;;;22.45;43.91;97242.19;4956606;29;19959;-74
2022/07/17 06:35:16;;;;;;;;;;;;;;;22.66;42.60;97234.88;4956692;29;20349;-74
2022/07/17 06:37:42;;;;;;;;;;;;;;;22.84;42.63;97245.97;4956236;29;20007;-74
2022/07/17 06:40:08;;;;;;;;;;;;;;;23.01;42.80;97243.75;4956285;28;20087;-73
2022/07/17 06:42:34;;;;;;;;;;;;;;;23.24;42.07;97239.56;4956189;29;19977;-74
2022/07/17 06:45:00;;;;;;;;;;;;;;;23.44;41.40;97238.59;4955988;29;20428;-74
2022/07/17 06:47:26;;;;;;;;;;;;;;;23.63;40.70;97235.22;4956337;29;19977;-73
2022/07/17 06:49:52;;;;;;;;;;;;;;;23.67;40.48;97242.41;4956240;29;20327;-74
2022/07/17 06:52:17;;;;;;;;;;;;;;;23.78;41.06;97248.47;4955967;29;20032;-75
2022/07/17 06:54:43;;;;;;;;;;;;;;;23.91;40.49;97234.41;4956024;29;20023;-74
2022/07/17 06:57:09;;;;;;;;;;;;;;;24.01;40.19;97232.72;4954742;29;20013;-75
2022/07/17 06:59:35;;;;;;;;;;;;;;;24.14;39.97;97242.72;4955831;29;20022;-75
2022/07/17 07:02:01;;;;;;;;;;;;;;;24.27;39.86;97241.25;4955855;28;20065;-74
2022/07/17 07:04:27;;;;;;;;;;;;;;;24.40;40.20;97247.78;4955824;29;20004;-74
2022/07/17 07:06:53;;;;;;;;;;;;;;;24.45;38.89;97242.38;4955884;29;20051;-75
2022/07/17 07:09:18;;;;;;;;;;;;;;;24.49;38.90;97246.09;4955838;29;20443;-74
2022/07/17 07:11:44;;;;;;;;;;;;;;;24.52;38.39;97246.31;4955921;29;20009;-74
2022/07/17 07:14:10;;;;;;;;;;;;;;;24.49;38.08;97246.09;4955908;29;19989;-74
2022/07/17 07:16:36;;;;;;;;;;;;;;;24.27;36.69;97244.75;4955573;29;19966;-74
2022/07/17 07:19:02;;;;;;;;;;;;;;;24.14;39.28;97263.38;4955584;29;19967;-74
2022/07/17 07:21:28;;;;;;;;;;;;;;;24.24;38.99;97256.03;4955843;29;19984;-74
2022/07/17 07:23:54;;;;;;;;;;;;;;;24.43;39.94;97257.94;4955441;29;19968;-74
2022/07/17 07:26:20;;;;;;;;;;;;;;;24.55;38.40;97249.50;4955873;29;20336;-73
2022/07/17 07:28:46;;;;;;;;;;;;;;;24.60;37.72;97244.09;4955466;29;20336;-74
2022/07/17 07:31:13;;;;;;;;;;;;;;;24.64;39.09;97253.16;4955753;29;19961;-75
2022/07/17 07:33:38;;;;;;;;;;;;;;;24.70;38.24;97263.50;4955448;29;19960;-74
2022/07/17 07:36:04;;;;;;;;;;;;;;;24.84;37.26;97265.47;4955816;29;19964;-73
2022/07/17 07:38:30;;;;;;;;;;;;;;;24.95;38.30;97258.88;4955343;29;19955;-74
2022/07/17 07:40:56;;;;;;;;;;;;;;;25.04;37.85;97250.97;4955257;29;19969;-74
2022/07/17 07:43:23;;;;;;;;;;;;;;;25.16;38.00;97259.38;4955742;29;20005;-74
2022/07/17 07:45:49;;;;;;;;;;;;;;;25.25;38.22;97254.16;4955352;29;19965;-74
2022/07/17 07:48:15;;;;;;;;;;;;;;;25.32;37.08;97254.56;4955558;29;19969;-73
2022/07/17 07:50:41;;;;;;;;;;;;;;;25.37;37.23;97259.88;4955705;29;19963;-74
2022/07/17 07:53:07;;;;;;;;;;;;;;;25.43;37.63;97260.56;4955282;29;20302;-74
2022/07/17 07:55:33;;;;;;;;;;;;;;;25.43;36.66;97260.56;4955248;29;20413;-74
2022/07/17 07:58:06;;;;;;;;;;;;;;;25.52;36.27;97256.13;4955573;29;20044;-75
2022/07/17 08:00:32;;;;;;;;;;;;;;;25.61;36.00;97256.25;4955167;29;19960;-75
2022/07/17 08:02:58;;;;;;;;;;;;;;;25.67;35.70;97255.06;4955583;29;19964;-74
2022/07/17 08:05:24;;;;;;;;;;;;;;;25.77;35.79;97256.78;4955568;29;20037;-75
2022/07/17 08:07:50;;;;;;;;;;;;;;;25.84;36.19;97249.91;4955287;29;20056;-76
2022/07/17 08:10:15;;;;;;;;;;;;;;;25.92;35.30;97253.84;4955207;29;20416;-75
2022/07/17 08:12:41;;;;;;;;;;;;;;;26.03;35.66;97251.75;4955065;28;19959;-75
2022/07/17 08:15:07;;;;;;;;;;;;;;;26.04;34.96;97256.00;4957918;29;19965;-75
2022/07/17 08:17:33;;;;;;;;;;;;;;;26.04;35.78;97262.22;4958858;29;20334;-75
2022/07/17 08:19:59;;;;;;;;;;;;;;;26.02;34.81;97258.22;4958919;29;20000;-77
2022/07/17 08:22:25;;;;;;;;;;;;;;;26.08;34.92;97265.06;4958847;29;20019;-75
2022/07/17 08:24:51;;;;;;;;;;;;;;;26.15;35.04;97265.50;4958625;29;19967;-74
2022/07/17 08:27:17;;;;;;;;;;;;;;;25.97;32.82;97252.94;4957619;28;19956;-73
2022/07/17 08:29:43;;;;;;;;;;;;;;;25.94;34.33;97265.09;4959002;29;19971;-74
2022/07/17 08:32:09;;;;;;;;;;;;;;;26.02;34.78;97279.75;4957535;29;19965;-73
2022/07/17 08:34:34;;;;;;;;;;;;;;;26.02;34.52;97272.47;4958336;29;19962;-73
2022/07/17 08:37:00;;;;;;;;;;;;;;;26.03;34.69;97279.41;4958598;29;20423;-74
2022/07/17 08:39:26;;;;;;;;;;;;;;;25.94;34.39;97272.34;4958537;29;19966;-74
2022/07/17 08:41:52;;;;;;;;;;;;;;;25.89;34.36;97273.22;4958552;29;20048;-74
2022/07/17 08:44:18;;;;;;;;;;;;;;;25.91;35.13;97262.97;4958196;29;19995;-74
2022/07/17 08:46:44;;;;;;;;;;;;;;;25.97;33.33;97263.69;4958532;29;20042;-74
2022/07/17 08:49:11;;;;;;;;;;;;;;;25.99;34.02;97267.66;4958280;29;19985;-73
2022/07/17 08:51:37;;;;;;;;;;;;;;;26.03;35.54;97275.94;4958169;29;19974;-73
2022/07/17 08:54:03;;;;;;;;;;;;;;;26.03;33.63;97268.66;4958210;29;20002;-73
2022/07/17 08:56:29;;;;;;;;;;;;;;;25.96;33.89;97275.53;4957544;28;19956;-73
2022/07/17 08:58:55;;;;;;;;;;;;;;;25.97;33.47;97277.91;4958333;29;19958;-74
2022/07/17 09:01:22;;;;;;;;;;;;;;;26.02;33.93;97268.97;4958108;29;19956;-73
2022/07/17 09:03:55;;;;;;;;;;;;;;;26.04;33.83;97275.66;4958078;29;19962;-72
2022/07/17 09:06:22;;;;;;;;;;;;;;;25.99;33.48;97269.56;4957968;29;19965;-73
2022/07/17 09:08:48;;;;;;;;;;;;;;;26.01;32.50;97273.53;4957972;29;19974;-75
2022/07/17 09:11:14;;;;;;;;;;;;;;;26.02;33.84;97279.75;4958451;29;19960;-73
2022/07/17 09:13:42;;;;;;;;;;;;;;;26.06;33.13;97276.16;4957783;29;19959;-76
2022/07/17 09:16:10;;;;;;;;;;;;;;;26.10;32.06;97266.41;4957812;29;19956;-77
2022/07/17 09:18:46;;;;;;;;;;;;;;;26.00;32.43;97265.81;4958071;29;20407;-76
2022/07/17 09:21:19;;;;;;;;;;;;;;;25.97;33.98;97279.81;4957531;29;19992;-76
2022/07/17 09:23:45;;;;;;;;;;;;;;;25.81;31.85;97274.69;4957443;29;19963;-77
2022/07/17 09:26:11;;;;;;;;;;;;;;;25.90;32.94;97282.91;4956167;28;19992;-77
2022/07/17 09:28:46;;;;;;;;;;;;;;;26.02;32.51;97279.75;4957922;29;20306;-76
2022/07/17 09:31:14;;;;;;;;;;;;;;;26.07;32.07;97274.25;4957376;29;19963;-77
2022/07/17 09:33:40;;;;;;;;;;;;;;;26.16;32.62;97280.50;4957528;29;19968;-73
2022/07/17 09:36:08;;;;;;;;;;;;;;;26.23;31.81;97278.25;4956235;29;20005;-74
2022/07/17 09:38:38;;;;;;;;;;;;;;;26.20;32.67;97276.13;4957479;29;19965;-74
2022/07/17 09:41:09;;;;;;;;;;;;;;;26.20;33.33;97286.91;4957908;29;19949;-74
2022/07/17 09:43:37;;;;;;;;;;;;;;;26.24;33.00;97282.50;4957538;29;19964;-75
2022/07/17 09:46:03;;;;;;;;;;;;;;;26.30;31.35;97259.00;4956910;28;19967;-76
2022/07/17 09:48:29;;;;;;;;;;;;;;;26.29;31.94;97268.16;4957108;28;19980;-76
2022/07/17 09:50:56;;;;;;;;;;;;;;;26.35;32.21;97266.97;4957701;29;20475;-76
2022/07/17 09:53:22;;;;;;;;;;;;;;;26.40;33.26;97274.94;4956313;29;20336;-76
2022/07/17 09:55:50;;;;;;;;;;;;;;;26.38;32.48;97269.06;4957238;29;19974;-76
2022/07/17 09:58:19;;;;;;;;;;;;;;;26.30;31.57;97264.41;4957066;29;19961;-76
2022/07/17 10:00:46;;;;;;;;;;;;;;;26.32;31.40;97267.59;4956938;29;20040;-76
2022/07/17 10:03:16;;;;;;;;;;;;;;;26.20;31.05;97259.22;4956952;29;19965;-77
2022/07/17 10:05:42;;;;;;;;;;;;;;;26.13;31.82;97271.16;4956963;29;19960;-74
2022/07/17 10:08:08;;;;;;;;;;;;;;;26.04;31.92;97264.06;4956757;29;19974;-74
2022/07/17 10:10:34;;;;;;;;;;;;;;;26.04;31.62;97256.84;4956333;28;19959;-73
2022/07/17 10:13:00;;;;;;;;;;;;;;;26.19;32.71;97269.19;4956669;29;19960;-74
2022/07/17 10:15:27;;;;;;;;;;;;;;;26.32;31.43;97264.91;4956614;29;19991;-73
2022/07/17 10:18:13;;;;;;;;;;;;;;;26.39;30.35;97269.88;4956361;29;19987;-74
2022/07/17 10:20:39;;;;;;;;;;;;;;;26.57;30.77;97252.84;4943083;29;20343;-74
2022/07/17 10:23:12;;;;;;;;;;;;;;;26.72;30.50;97247.13;4956592;29;19968;-73
2022/07/17 10:25:38;;;;;;;;;;;;;;;26.85;30.97;97244.69;4956304;29;20335;-73
2022/07/17 10:28:04;;;;;;;;;;;;;;;26.75;30.92;97253.00;4956315;29;19965;-74
2022/07/17 10:30:31;;;;;;;;;;;;;;;26.73;30.14;97253.28;4956345;29;19962;-73
2022/07/17 10:32:59;;;;;;;;;;;;;;;26.51;29.33;97246.72;4956792;29;19960;-73
2022/07/17 10:35:26;;;;;;;;;;;;;;;26.36;30.03;97252.44;4955953;28;19983;-73
2022/07/17 10:37:52;;;;;;;;;;;;;;;26.38;29.24;97246.75;4955855;28;20435;-73
2022/07/17 10:40:18;;;;;;;;;;;;;;;26.31;29.39;97245.28;4956092;29;19952;-73
2022/07/17 10:42:44;;;;;;;;;;;;;;;26.43;29.53;97231.31;4956527;29;19960;-73
2022/07/17 10:45:17;;;;;;;;;;;;;;;26.51;30.12;97240.56;4956287;29;19962;-74
2022/07/17 10:47:49;;;;;;;;;;;;;;;26.80;30.62;97250.19;4956407;29;19967;-73
2022/07/17 10:50:16;;;;;;;;;;;;;;;27.02;30.30;97247.50;4956126;29;19980;-74
2022/07/17 10:52:42;;;;;;;;;;;;;;;27.17;29.08;97238.28;4956061;29;19968;-74
2022/07/17 10:55:18;;;;;;;;;;;;;;;27.07;29.05;97244.72;4955863;29;20315;-73
2022/07/17 10:57:44;;;;;;;;;;;;;;;27.04;29.16;97239.94;4956035;29;19956;-74
2022/07/17 11:00:12;;;;;;;;;;;;;;;26.86;28.32;97241.72;4956177;29;19963;-74
2022/07/17 11:02:38;;;;;;;;;;;;;;;26.85;29.41;97234.72;4955903;29;19954;-74
2022/07/17 11:05:07;;;;;;;;;;;;;;;26.91;28.14;97238.09;4955851;29;19965;-75
2022/07/17 11:07:33;;;;;;;;;;;;;;;27.01;26.86;97237.88;4955700;29;19963;-74
2022/07/17 11:10:00;;;;;;;;;;;;;;;26.92;27.21;97248.56;4955721;29;19976;-74
2022/07/17 11:12:32;;;;;;;;;;;;;;;26.96;28.06;97250.63;4955614;29;20347;-73
2022/07/17 11:14:59;;;;;;;;;;;;;;;26.91;27.33;97255.03;4955567;28;19962;-74
2022/07/17 11:17:25;;;;;;;;;;;;;;;27.00;28.22;97249.72;4955777;29;19952;-74
2022/07/17 11:19:52;;;;;;;;;;;;;;;27.17;27.41;97250.94;4955155;29;20014;-76
2022/07/17 11:22:21;;;;;;;;;;;;;;;27.45;27.76;97246.28;4956148;29;19969;-74
2022/07/17 11:24:48;;;;;;;;;;;;;;;27.80;27.17;97238.34;4955364;29;19964;-74
2022/07/17 11:27:20;;;;;;;;;;;;;;;27.89;24.33;97237.31;4955667;28;19958;-74
2022/07/17 11:29:47;;;;;;;;;;;;;;;28.13;26.08;97239.63;4955747;29;19969;-74
2022/07/17 11:32:13;;;;;;;;;;;;;;;28.22;24.54;97236.94;4955616;29;19961;-74
2022/07/17 11:34:39;;;;;;;;;;;;;;;28.32;23.53;97233.16;4955822;29;19958;-75
2022/07/17 11:37:06;;;;;;;;;;;;;;;28.17;24.37;97237.09;4955502;29;20005;-75
2022/07/17 11:39:40;;;;;;;;;;;;;;;28.17;25.03;97239.78;4955584;29;20332;-75
2022/07/17 11:42:09;;;;;;;;;;;;;;;28.34;24.10;97237.13;4942886;29;19957;-75
2022/07/17 11:44:35;;;;;;;;;;;;;;;28.54;25.87;97240.41;4955331;29;19975;-75
2022/07/17 11:47:01;;;;;;;;;;;;;;;28.76;24.74;97227.88;4955324;29;19960;-74
2022/07/17 11:49:27;;;;;;;;;;;;;;;28.64;21.43;97229.31;4958928;28;19973;-74
2022/07/17 11:51:55;;;;;;;;;;;;;;;28.51;23.30;97233.69;4959153;28;20351;-73
2022/07/17 11:54:21;;;;;;;;;;;;;;;28.52;22.96;97235.31;4959125;29;19957;-73
2022/07/17 11:56:54;;;;;;;;;;;;;;;28.69;23.73;97236.44;4959278;29;19970;-73
2022/07/17 11:59:30;;;;;;;;;;;;;;;28.91;24.62;97233.56;4959045;29;20319;-74
2022/07/17 12:01:56;;;;;;;;;;;;;;;29.04;22.33;97231.03;4959552;29;20402;-74
2022/07/17 12:04:22;;;;;;;;;;;;;;;29.16;23.95;97243.94;4959092;29;19961;-74
2022/07/17 12:07:01;;;;;;;;;;;;;;;29.32;24.48;97236.91;4959159;29;19961;-73
2022/07/17 12:09:27;;;;;;;;;;;;;;;29.60;23.50;97223.81;4959071;29;20031;-74
2022/07/17 12:11:53;;;;;;;;;;;;;;;29.56;22.47;97228.28;4959211;29;19962;-74
2022/07/17 12:14:19;;;;;;;;;;;;;;;29.72;23.12;97232.06;4958907;29;19959;-74
2022/07/17 12:16:45;;;;;;;;;;;;;;;29.74;20.11;97223.63;4958949;29;19962;-74
2022/07/17 12:19:15;;;;;;;;;;;;;;;29.65;20.21;97222.84;4959297;29;19955;-74
2022/07/17 12:21:53;;;;;;;;;;;;;;;29.57;21.89;97224.47;4958700;29;19993;-75
2022/07/17 12:24:21;;;;;;;;;;;;;;;29.58;22.59;97226.03;4958604;29;20357;-74
2022/07/17 12:26:47;;;;;;;;;;;;;;;29.29;21.45;97232.97;4958771;29;19961;-74
2022/07/17 12:29:13;;;;;;;;;;;;;;;29.01;18.53;97227.06;4958434;29;19986;-74
2022/07/17 12:31:39;;;;;;;;;;;;;;;29.03;18.43;97218.66;4957507;29;20506;-74
2022/07/17 12:34:05;;;;;;;;;;;;;;;29.19;19.59;97224.38;4958526;29;19967;-74
2022/07/17 12:36:31;;;;;;;;;;;;;;;29.42;21.69;97230.38;4958737;28;19958;-74
2022/07/17 12:38:57;;;;;;;;;;;;;;;29.48;20.56;97229.09;4958384;29;19965;-74
2022/07/17 12:41:23;;;;;;;;;;;;;;;29.20;19.54;97221.34;4958330;29;19958;-74
2022/07/17 12:43:49;;;;;;;;;;;;;;;29.24;22.08;97218.81;4958169;29;19965;-74